createdAt,value
2018-08-28T00:00:24.153Z,101533.00
2018-08-28T00:02:53.955Z,101541.00
2018-08-28T00:05:23.765Z,101538.00
2018-08-28T00:07:53.573Z,101548.00
2018-08-28T00:10:23.274Z,101547.00
2018-08-28T00:12:52.997Z,101547.00
2018-08-28T00:15:22.801Z,101550.00
2018-08-28T00:17:52.431Z,101553.00
2018-08-28T00:20:22.132Z,101547.00
2018-08-28T00:22:51.877Z,101553.00
2018-08-28T00:25:21.649Z,101548.00
2018-08-28T00:27:51.325Z,101546.00
2018-08-28T00:30:21.032Z,101548.00
2018-08-28T00:32:50.690Z,101547.00
2018-08-28T00:35:20.523Z,101545.00
2018-08-28T00:37:50.223Z,101547.00
2018-08-28T00:40:20.085Z,101556.00
2018-08-28T00:42:50.028Z,101552.00
2018-08-28T00:45:20.223Z,101549.00
2018-08-28T00:47:50.768Z,101553.00
2018-08-28T00:50:20.447Z,101554.00
2018-08-28T00:52:50.323Z,101558.00
2018-08-28T00:55:19.990Z,101565.00
2018-08-28T00:57:49.734Z,101555.00
2018-08-28T01:00:19.390Z,101558.00
2018-08-28T01:02:49.118Z,101559.00
2018-08-28T01:05:20.746Z,101564.00
2018-08-28T01:07:50.930Z,101565.00
2018-08-28T01:10:20.586Z,101556.00
2018-08-28T01:12:50.270Z,101559.00
2018-08-28T01:15:20.062Z,101555.00
2018-08-28T01:17:49.769Z,101559.00
2018-08-28T01:20:19.478Z,101563.00
2018-08-28T01:22:49.282Z,101561.00
2018-08-28T01:25:19.107Z,101561.00
2018-08-28T01:27:49.095Z,101563.00
2018-08-28T01:30:36.198Z,101565.00
2018-08-28T01:33:07.054Z,101566.00
2018-08-28T01:35:36.714Z,101565.00
2018-08-28T01:38:06.388Z,101562.00
2018-08-28T01:40:36.171Z,101564.00
2018-08-28T01:43:11.171Z,101566.00
2018-08-28T01:45:40.857Z,101569.00
2018-08-28T01:48:10.526Z,101572.00
2018-08-28T01:50:40.915Z,101573.00
2018-08-28T01:53:10.816Z,101565.00
2018-08-28T01:55:40.422Z,101576.00
2018-08-28T01:58:10.212Z,101564.00
2018-08-28T02:00:39.792Z,101572.00
2018-08-28T02:03:09.574Z,101570.00
2018-08-28T02:05:39.518Z,101562.00
2018-08-28T02:08:09.078Z,101563.00
2018-08-28T02:10:38.842Z,101568.00
2018-08-28T02:13:08.563Z,101565.00
2018-08-28T02:15:38.227Z,101571.00
2018-08-28T02:18:08.053Z,101572.00
2018-08-28T02:20:37.688Z,101580.00
2018-08-28T02:23:07.448Z,101581.00
2018-08-28T02:25:37.230Z,101577.00
2018-08-28T02:28:07.138Z,101574.00
2018-08-28T02:30:36.914Z,101580.00
2018-08-28T02:33:06.660Z,101579.00
2018-08-28T02:35:36.369Z,101589.00
2018-08-28T02:38:06.036Z,101576.00
2018-08-28T02:40:35.834Z,101581.00
2018-08-28T02:43:05.696Z,101573.00
2018-08-28T02:45:35.411Z,101572.00
2018-08-28T02:48:05.245Z,101564.00
2018-08-28T02:50:34.929Z,101560.00
2018-08-28T02:53:05.025Z,101561.00
2018-08-28T02:55:35.321Z,101566.00
2018-08-28T02:58:04.985Z,101561.00
2018-08-28T03:00:34.779Z,101569.00
2018-08-28T03:03:04.514Z,101569.00
2018-08-28T03:05:34.146Z,101571.00
2018-08-28T03:08:03.935Z,101569.00
2018-08-28T03:10:33.707Z,101570.00
2018-08-28T03:13:03.392Z,101575.00
2018-08-28T03:15:33.295Z,101574.00
2018-08-28T03:18:02.902Z,101575.00
2018-08-28T03:20:32.916Z,101572.00
2018-08-28T03:23:02.746Z,101575.00
2018-08-28T03:25:32.516Z,101570.00
2018-08-28T03:28:02.417Z,101574.00
2018-08-28T03:30:31.979Z,101580.00
2018-08-28T03:33:01.727Z,101578.00
2018-08-28T03:35:31.410Z,101576.00
2018-08-28T03:38:01.067Z,101583.00
2018-08-28T03:40:30.815Z,101584.00
2018-08-28T03:43:00.446Z,101584.00
2018-08-28T03:45:30.134Z,101585.00
2018-08-28T03:47:59.972Z,101586.00
2018-08-28T03:50:30.306Z,101588.00
2018-08-28T03:53:00.122Z,101592.00
2018-08-28T03:55:29.996Z,101588.00
2018-08-28T03:57:59.676Z,101591.00
2018-08-28T04:00:29.346Z,101590.00
2018-08-28T04:02:59.035Z,101583.00
2018-08-28T04:05:28.711Z,101592.00
2018-08-28T04:07:58.573Z,101593.00
2018-08-28T04:10:28.929Z,101587.00
2018-08-28T04:12:58.693Z,101593.00
2018-08-28T04:15:28.481Z,101602.00
2018-08-28T04:17:58.055Z,101592.00
2018-08-28T04:20:27.804Z,101601.00
2018-08-28T04:22:57.582Z,101592.00
2018-08-28T04:25:27.255Z,101600.00
2018-08-28T04:27:56.958Z,101602.00
2018-08-28T04:30:26.732Z,101614.00
2018-08-28T04:32:56.598Z,101601.00
2018-08-28T04:35:26.308Z,101602.00
2018-08-28T04:37:56.017Z,101606.00
2018-08-28T04:40:25.837Z,101616.00
2018-08-28T04:42:55.627Z,101617.00
2018-08-28T04:45:25.193Z,101612.00
2018-08-28T04:47:55.088Z,101607.00
2018-08-28T04:50:24.847Z,101607.00
2018-08-28T04:52:54.645Z,101606.00
2018-08-28T04:55:24.302Z,101606.00
2018-08-28T04:57:54.053Z,101614.00
2018-08-28T05:00:23.797Z,101614.00
2018-08-28T05:02:53.521Z,101621.00
2018-08-28T05:05:23.195Z,101632.00
2018-08-28T05:07:53.553Z,101621.00
2018-08-28T05:10:23.369Z,101633.00
2018-08-28T05:12:52.953Z,101631.00
2018-08-28T05:15:22.678Z,101630.00
2018-08-28T05:17:52.395Z,101638.00
2018-08-28T05:20:22.239Z,101629.00
2018-08-28T05:22:51.939Z,101629.00
2018-08-28T05:25:21.857Z,101642.00
2018-08-28T05:27:51.725Z,101637.00
2018-08-28T05:30:22.189Z,101636.00
2018-08-28T05:32:52.055Z,101633.00
2018-08-28T05:35:21.799Z,101642.00
2018-08-28T05:37:51.587Z,101637.00
2018-08-28T05:40:22.196Z,101643.00
2018-08-28T05:42:51.931Z,101645.00
2018-08-28T05:45:21.667Z,101650.00
2018-08-28T05:47:51.407Z,101646.00
2018-08-28T05:50:21.339Z,101649.00
2018-08-28T05:52:51.056Z,101649.00
2018-08-28T05:55:20.908Z,101655.00
2018-08-28T05:57:50.787Z,101651.00
2018-08-28T06:00:20.692Z,101658.00
2018-08-28T06:02:50.524Z,101657.00
2018-08-28T06:05:20.358Z,101664.00
2018-08-28T06:07:50.208Z,101660.00
2018-08-28T06:10:19.860Z,101662.00
2018-08-28T06:12:50.060Z,101661.00
2018-08-28T06:15:19.776Z,101667.00
2018-08-28T06:17:49.655Z,101666.00
2018-08-28T06:20:19.438Z,101662.00
2018-08-28T06:22:49.229Z,101674.00
2018-08-28T06:25:18.989Z,101673.00
2018-08-28T06:27:48.689Z,101677.00
2018-08-28T06:30:18.460Z,101680.00
2018-08-28T06:32:48.315Z,101682.00
2018-08-28T06:35:18.074Z,101682.00
2018-08-28T06:37:47.835Z,101686.00
2018-08-28T06:40:17.637Z,101682.00
2018-08-28T06:42:47.401Z,101677.00
2018-08-28T06:45:17.220Z,101686.00
2018-08-28T06:47:46.892Z,101688.00
2018-08-28T06:50:16.561Z,101685.00
2018-08-28T06:52:46.287Z,101690.00
2018-08-28T06:55:16.110Z,101686.00
2018-08-28T06:57:45.784Z,101684.00
2018-08-28T07:00:15.475Z,101691.00
2018-08-28T07:02:45.229Z,101694.00
2018-08-28T07:05:16.143Z,101692.00
2018-08-28T07:07:45.961Z,101701.00
2018-08-28T07:10:15.949Z,101694.00
2018-08-28T07:12:45.691Z,101691.00
2018-08-28T07:15:15.351Z,101694.00
2018-08-28T07:17:44.938Z,101690.00
2018-08-28T07:20:14.721Z,101695.00
2018-08-28T07:22:44.591Z,101695.00
2018-08-28T07:25:14.338Z,101697.00
2018-08-28T07:27:44.026Z,101695.00
2018-08-28T07:30:13.914Z,101699.00
2018-08-28T07:32:43.720Z,101701.00
2018-08-28T07:35:13.628Z,101703.00
2018-08-28T07:37:43.466Z,101703.00
2018-08-28T07:40:13.348Z,101697.00
2018-08-28T07:42:42.987Z,101705.00
2018-08-28T07:45:12.758Z,101707.00
2018-08-28T07:47:42.402Z,101711.00
2018-08-28T07:50:12.436Z,101708.00
2018-08-28T07:52:42.154Z,101705.00
2018-08-28T07:55:11.790Z,101711.00
2018-08-28T07:57:41.525Z,101705.00
2018-08-28T08:00:11.256Z,101701.00
2018-08-28T08:02:40.944Z,101702.00
2018-08-28T08:05:10.740Z,101706.00
2018-08-28T08:07:40.564Z,101707.00
2018-08-28T08:10:10.376Z,101711.00
2018-08-28T08:12:40.057Z,101715.00
2018-08-28T08:15:09.661Z,101711.00
2018-08-28T08:17:39.581Z,101715.00
2018-08-28T08:20:09.343Z,101720.00
2018-08-28T08:22:39.083Z,101725.00
2018-08-28T08:25:08.987Z,101727.00
2018-08-28T08:30:21.229Z,101727.00
2018-08-28T08:32:51.051Z,101723.00
2018-08-28T08:35:20.920Z,101717.00
2018-08-28T08:37:50.786Z,101723.00
2018-08-28T08:40:20.455Z,101716.00
2018-08-28T08:42:50.126Z,101719.00
2018-08-28T08:45:19.954Z,101715.00
2018-08-28T08:47:49.623Z,101717.00
2018-08-28T08:50:19.542Z,101712.00
2018-08-28T08:52:49.358Z,101709.00
2018-08-28T08:55:19.110Z,101710.00
2018-08-28T08:57:49.006Z,101702.00
2018-08-28T09:00:18.736Z,101710.00
2018-08-28T09:02:48.558Z,101711.00
2018-08-28T09:05:18.228Z,101704.00
2018-08-28T09:07:48.023Z,101704.00
2018-08-28T09:10:17.556Z,101703.00
2018-08-28T09:12:47.437Z,101699.00
2018-08-28T09:15:17.221Z,101698.00
2018-08-28T09:17:47.128Z,101698.00
2018-08-28T09:20:16.831Z,101698.00
2018-08-28T09:22:46.517Z,101697.00
2018-08-28T09:25:16.091Z,101695.00
2018-08-28T09:27:45.801Z,101697.00
2018-08-28T09:30:15.419Z,101691.00
2018-08-28T09:32:45.103Z,101700.00
2018-08-28T09:35:14.824Z,101695.00
2018-08-28T09:37:44.519Z,101706.00
2018-08-28T09:40:14.144Z,101703.00
2018-08-28T09:42:43.895Z,101702.00
2018-08-28T09:45:13.575Z,101703.00
2018-08-28T09:47:43.295Z,101705.00
2018-08-28T09:50:13.167Z,101706.00
2018-08-28T09:52:42.846Z,101699.00
2018-08-28T09:55:12.577Z,101705.00
2018-08-28T09:57:42.357Z,101702.00
2018-08-28T10:00:17.252Z,101700.00
2018-08-28T10:02:47.180Z,101694.00
2018-08-28T10:05:16.909Z,101692.00
2018-08-28T10:07:46.769Z,101688.00
2018-08-28T10:10:16.415Z,101687.00
2018-08-28T10:12:46.172Z,101690.00
2018-08-28T10:15:15.858Z,101691.00
2018-08-28T10:17:45.541Z,101684.00
2018-08-28T10:20:15.169Z,101686.00
2018-08-28T10:22:45.071Z,101683.00
2018-08-28T10:25:14.731Z,101682.00
2018-08-28T10:27:44.731Z,101682.00
2018-08-28T10:30:14.701Z,101685.00
2018-08-28T10:32:44.355Z,101683.00
2018-08-28T10:35:14.091Z,101682.00
2018-08-28T10:37:43.844Z,101683.00
2018-08-28T10:40:13.617Z,101680.00
2018-08-28T10:42:43.507Z,101681.00
2018-08-28T10:45:13.435Z,101674.00
2018-08-28T10:47:43.037Z,101674.00
2018-08-28T10:50:12.740Z,101665.00
2018-08-28T10:52:42.655Z,101677.00
2018-08-28T10:55:12.386Z,101669.00
2018-08-28T10:57:42.126Z,101671.00
2018-08-28T11:00:12.050Z,101677.00
2018-08-28T11:02:41.845Z,101678.00
2018-08-28T11:05:11.718Z,101676.00
2018-08-28T11:07:41.494Z,101678.00
2018-08-28T11:10:11.512Z,101678.00
2018-08-28T11:12:41.212Z,101669.00
2018-08-28T11:15:11.099Z,101675.00
2018-08-28T11:17:40.924Z,101675.00
2018-08-28T11:20:10.794Z,101669.00
2018-08-28T11:22:40.576Z,101661.00
2018-08-28T11:25:10.761Z,101657.00
2018-08-28T11:27:40.566Z,101670.00
2018-08-28T11:30:10.395Z,101666.00
2018-08-28T11:32:40.297Z,101666.00
2018-08-28T11:35:10.055Z,101666.00
2018-08-28T11:37:39.903Z,101666.00
2018-08-28T11:40:09.626Z,101668.00
2018-08-28T11:42:39.381Z,101666.00
2018-08-28T11:45:09.483Z,101657.00
2018-08-28T11:47:39.377Z,101663.00
2018-08-28T11:50:09.604Z,101671.00
2018-08-28T11:52:39.397Z,101662.00
2018-08-28T11:55:09.283Z,101668.00
2018-08-28T11:57:39.468Z,101655.00
2018-08-28T12:00:09.358Z,101663.00
2018-08-28T12:02:39.155Z,101673.00
2018-08-28T12:05:08.823Z,101664.00
2018-08-28T12:07:38.471Z,101671.00
2018-08-28T12:10:09.355Z,101670.00
2018-08-28T12:12:39.119Z,101659.00
2018-08-28T12:15:09.017Z,101658.00
2018-08-28T12:17:39.051Z,101661.00
2018-08-28T12:20:10.101Z,101664.00
2018-08-28T12:22:39.887Z,101653.00
2018-08-28T12:25:10.208Z,101648.00
2018-08-28T12:27:39.859Z,101646.00
2018-08-28T12:30:11.430Z,101646.00
2018-08-28T12:32:41.141Z,101635.00
2018-08-28T12:35:10.804Z,101635.00
2018-08-28T12:37:40.561Z,101621.00
2018-08-28T12:40:10.317Z,101621.00
2018-08-28T12:42:40.192Z,101617.00
2018-08-28T12:45:09.992Z,101619.00
2018-08-28T12:47:40.235Z,101613.00
2018-08-28T12:50:10.943Z,101608.00
2018-08-28T12:52:40.604Z,101609.00
2018-08-28T12:55:10.375Z,101600.00
2018-08-28T12:57:40.109Z,101596.00
2018-08-28T13:00:10.001Z,101596.00
2018-08-28T13:02:39.879Z,101590.00
2018-08-28T13:05:09.663Z,101594.00
2018-08-28T13:07:39.566Z,101597.00
2018-08-28T13:10:09.660Z,101593.00
2018-08-28T13:12:39.800Z,101582.00
2018-08-28T13:15:09.704Z,101575.00
2018-08-28T13:17:39.587Z,101572.00
2018-08-28T13:20:09.469Z,101572.00
2018-08-28T13:22:39.434Z,101566.00
2018-08-28T13:25:10.013Z,101568.00
2018-08-28T13:27:41.059Z,101564.00
2018-08-28T13:30:11.162Z,101559.00
2018-08-28T13:32:40.884Z,101565.00
2018-08-28T13:35:11.518Z,101563.00
2018-08-28T13:37:41.720Z,101564.00
2018-08-28T13:40:12.575Z,101557.00
2018-08-28T13:42:42.338Z,101558.00
2018-08-28T13:45:12.412Z,101555.00
2018-08-28T13:47:42.210Z,101561.00
2018-08-28T13:50:12.850Z,101559.00
2018-08-28T13:52:42.682Z,101561.00
2018-08-28T13:55:12.900Z,101558.00
2018-08-28T13:57:42.903Z,101558.00
2018-08-28T14:00:12.898Z,101554.00
2018-08-28T14:02:42.951Z,101548.00
2018-08-28T14:05:12.728Z,101545.00
2018-08-28T14:07:43.086Z,101546.00
2018-08-28T14:10:13.194Z,101550.00
2018-08-28T14:12:43.329Z,101547.00
2018-08-28T14:15:13.932Z,101549.00
2018-08-28T14:17:43.905Z,101542.00
2018-08-28T14:20:14.185Z,101543.00
2018-08-28T14:22:45.262Z,101547.00
2018-08-28T14:25:15.663Z,101550.00
2018-08-28T14:27:45.316Z,101535.00
2018-08-28T14:30:15.970Z,101531.00
2018-08-28T14:32:45.755Z,101535.00
2018-08-28T14:35:15.541Z,101522.00
2018-08-28T14:37:45.308Z,101530.00
2018-08-28T14:40:15.027Z,101522.00
2018-08-28T14:42:46.549Z,101510.00
2018-08-28T14:45:16.538Z,101511.00
2018-08-28T14:47:46.453Z,101512.00
2018-08-28T14:50:16.332Z,101512.00
2018-08-28T14:52:46.428Z,101511.00
2018-08-28T14:55:16.467Z,101504.00
2018-08-28T14:57:49.590Z,101500.00
2018-08-28T15:00:19.530Z,101504.00
2018-08-28T15:02:50.739Z,101500.00
2018-08-28T15:05:20.405Z,101500.00
2018-08-28T15:07:50.451Z,101496.00
2018-08-28T15:10:20.681Z,101493.00
2018-08-28T15:12:51.051Z,101493.00
2018-08-28T15:15:21.078Z,101490.00
2018-08-28T15:17:51.959Z,101500.00
2018-08-28T15:20:22.660Z,101492.00
2018-08-28T15:22:52.442Z,101487.00
2018-08-28T15:25:22.526Z,101485.00
2018-08-28T15:27:52.906Z,101480.00
2018-08-28T15:30:22.662Z,101476.00
2018-08-28T15:32:53.283Z,101474.00
2018-08-28T15:35:24.156Z,101472.00
2018-08-28T15:37:54.840Z,101475.00
2018-08-28T15:40:24.756Z,101472.00
2018-08-28T15:42:55.002Z,101471.00
2018-08-28T15:45:25.082Z,101468.00
2018-08-28T15:47:55.170Z,101464.00
2018-08-28T15:50:25.307Z,101463.00
2018-08-28T15:52:55.908Z,101464.00
2018-08-28T15:55:25.986Z,101462.00
2018-08-28T15:57:55.949Z,101454.00
2018-08-28T16:00:26.527Z,101459.00
2018-08-28T16:02:56.411Z,101454.00
2018-08-28T16:05:26.286Z,101449.00
2018-08-28T16:07:56.147Z,101453.00
2018-08-28T16:10:25.895Z,101451.00
2018-08-28T16:12:55.601Z,101444.00
2018-08-28T16:15:25.516Z,101441.00
2018-08-28T16:17:56.399Z,101443.00
2018-08-28T16:20:26.629Z,101440.00
2018-08-28T16:23:02.768Z,101438.00
2018-08-28T16:25:34.647Z,101439.00
2018-08-28T16:28:04.444Z,101433.00
2018-08-28T16:30:34.838Z,101430.00
2018-08-28T16:33:04.652Z,101424.00
2018-08-28T16:35:34.882Z,101419.00
2018-08-28T16:38:04.653Z,101416.00
2018-08-28T16:40:34.612Z,101406.00
2018-08-28T16:43:04.414Z,101410.00
2018-08-28T16:45:34.360Z,101410.00
2018-08-28T16:48:04.110Z,101410.00
2018-08-28T16:50:34.170Z,101414.00
2018-08-28T16:53:05.208Z,101404.00
2018-08-28T16:55:35.240Z,101398.00
2018-08-28T16:58:05.154Z,101404.00
2018-08-28T17:00:34.905Z,101401.00
2018-08-28T17:03:04.744Z,101396.00
2018-08-28T17:05:34.626Z,101401.00
2018-08-28T17:08:04.569Z,101391.00
2018-08-28T17:10:34.430Z,101391.00
2018-08-28T17:13:04.272Z,101384.00
2018-08-28T17:15:34.053Z,101373.00
2018-08-28T17:18:03.799Z,101378.00
2018-08-28T17:20:33.773Z,101378.00
2018-08-28T17:23:03.671Z,101372.00
2018-08-28T17:25:33.398Z,101369.00
2018-08-28T17:28:03.097Z,101375.00
2018-08-28T17:30:34.063Z,101373.00
2018-08-28T17:33:04.465Z,101371.00
2018-08-28T17:35:34.151Z,101383.00
2018-08-28T17:38:04.683Z,101374.00
2018-08-28T17:40:34.650Z,101375.00
2018-08-28T17:43:04.468Z,101376.00
2018-08-28T17:45:34.487Z,101370.00
2018-08-28T17:48:06.999Z,101369.00
2018-08-28T17:50:37.823Z,101369.00
2018-08-28T17:53:07.922Z,101371.00
2018-08-28T17:55:38.092Z,101367.00
2018-08-28T17:58:07.874Z,101365.00
2018-08-28T18:00:37.616Z,101374.00
2018-08-28T18:03:07.340Z,101368.00
2018-08-28T18:05:37.568Z,101361.00
2018-08-28T18:08:07.572Z,101371.00
2018-08-28T18:10:37.695Z,101364.00
2018-08-28T18:13:08.385Z,101370.00
2018-08-28T18:15:38.585Z,101361.00
2018-08-28T18:18:08.806Z,101366.00
2018-08-28T18:20:38.540Z,101366.00
2018-08-28T18:23:08.180Z,101368.00
2018-08-28T18:25:38.151Z,101366.00
2018-08-28T18:28:08.130Z,101376.00
2018-08-28T18:30:38.114Z,101366.00
2018-08-28T18:33:08.241Z,101362.00
2018-08-28T18:35:38.024Z,101368.00
2018-08-28T18:38:07.731Z,101375.00
2018-08-28T18:40:37.847Z,101370.00
2018-08-28T18:43:07.623Z,101363.00
2018-08-28T18:45:37.796Z,101371.00
2018-08-28T18:48:07.716Z,101373.00
2018-08-28T18:50:38.963Z,101370.00
2018-08-28T18:53:08.945Z,101371.00
2018-08-28T18:55:38.739Z,101369.00
2018-08-28T18:58:09.241Z,101371.00
2018-08-28T19:00:39.261Z,101375.00
2018-08-28T19:03:09.112Z,101373.00
2018-08-28T19:05:39.007Z,101372.00
2018-08-28T19:08:09.147Z,101374.00
2018-08-28T19:10:39.167Z,101375.00
2018-08-28T19:13:09.257Z,101376.00
2018-08-28T19:15:39.199Z,101370.00
2018-08-28T19:18:08.934Z,101375.00
2018-08-28T19:20:38.787Z,101378.00
2018-08-28T19:23:14.618Z,101376.00
2018-08-28T19:25:44.477Z,101375.00
2018-08-28T19:28:14.487Z,101378.00
2018-08-28T19:30:44.355Z,101382.00
2018-08-28T19:33:14.577Z,101375.00
2018-08-28T19:35:44.675Z,101375.00
2018-08-28T19:38:14.593Z,101372.00
2018-08-28T19:40:44.715Z,101378.00
2018-08-28T19:43:14.693Z,101367.00
2018-08-28T19:45:49.195Z,101366.00
2018-08-28T19:48:20.984Z,101362.00
2018-08-28T19:50:50.829Z,101352.00
2018-08-28T19:53:21.730Z,101352.00
2018-08-28T19:55:57.195Z,101356.00
2018-08-28T19:58:27.063Z,101355.00
2018-08-28T20:00:57.076Z,101350.00
2018-08-28T20:03:26.781Z,101344.00
2018-08-28T20:05:56.537Z,101355.00
2018-08-28T20:08:26.344Z,101342.00
2018-08-28T20:10:56.093Z,101338.00
2018-08-28T20:13:25.935Z,101342.00
2018-08-28T20:15:55.771Z,101340.00
2018-08-28T20:18:25.461Z,101335.00
2018-08-28T20:20:55.356Z,101340.00
2018-08-28T20:23:25.269Z,101331.00
2018-08-28T20:25:54.993Z,101338.00
2018-08-28T20:28:25.515Z,101340.00
2018-08-28T20:30:55.387Z,101330.00
2018-08-28T20:33:25.500Z,101334.00
2018-08-28T20:35:56.403Z,101330.00
2018-08-28T20:38:26.438Z,101328.00
2018-08-28T20:40:56.438Z,101322.00
2018-08-28T20:43:26.306Z,101319.00
2018-08-28T20:45:56.172Z,101313.00
2018-08-28T20:48:26.116Z,101306.00
2018-08-28T20:50:56.032Z,101301.00
2018-08-28T20:53:25.922Z,101302.00
2018-08-28T20:55:55.806Z,101300.00
2018-08-28T20:58:25.820Z,101289.00
2018-08-28T21:00:55.840Z,101302.00
2018-08-28T21:03:26.064Z,101294.00
2018-08-28T21:05:55.904Z,101295.00
2018-08-28T21:08:25.978Z,101292.00
2018-08-28T21:10:55.814Z,101286.00
2018-08-28T21:13:40.342Z,101276.00
2018-08-28T21:16:10.059Z,101275.00
2018-08-28T21:18:39.896Z,101275.00
2018-08-28T21:21:09.869Z,101273.00
2018-08-28T21:23:39.858Z,101273.00
2018-08-28T21:26:09.711Z,101258.00
2018-08-28T21:28:39.595Z,101261.00
2018-08-28T21:31:09.390Z,101259.00
2018-08-28T21:33:39.148Z,101252.00
2018-08-28T21:36:21.227Z,101246.00
2018-08-28T21:38:50.976Z,101246.00
2018-08-28T21:41:21.083Z,101246.00
2018-08-28T21:43:50.748Z,101251.00
2018-08-28T21:46:20.331Z,101258.00
2018-08-28T21:48:50.117Z,101256.00
2018-08-28T21:51:19.847Z,101257.00
2018-08-28T21:53:49.540Z,101265.00
2018-08-28T21:56:19.284Z,101253.00
2018-08-28T21:58:48.969Z,101250.00
2018-08-28T22:01:18.639Z,101250.00
2018-08-28T22:03:48.338Z,101245.00
2018-08-28T22:06:23.275Z,101249.00
2018-08-28T22:08:52.924Z,101246.00
2018-08-28T22:11:22.664Z,101243.00
2018-08-28T22:13:52.475Z,101235.00
2018-08-28T22:16:22.194Z,101239.00
2018-08-28T22:18:51.862Z,101245.00
2018-08-28T22:21:21.552Z,101243.00
2018-08-28T22:23:51.258Z,101237.00
2018-08-28T22:26:21.110Z,101239.00
2018-08-28T22:28:50.770Z,101236.00
2018-08-28T22:31:20.638Z,101235.00
2018-08-28T22:33:50.428Z,101230.00
2018-08-28T22:36:20.098Z,101239.00
2018-08-28T22:38:49.830Z,101226.00
2018-08-28T22:41:19.494Z,101225.00
2018-08-28T22:43:49.352Z,101222.00
2018-08-28T22:46:19.106Z,101216.00
2018-08-28T22:48:48.823Z,101220.00
2018-08-28T22:51:18.514Z,101214.00
2018-08-28T22:53:48.224Z,101209.00
2018-08-28T22:56:17.934Z,101213.00
2018-08-28T22:58:47.602Z,101209.00
2018-08-28T23:01:17.358Z,101205.00
2018-08-28T23:03:47.070Z,101199.00
2018-08-28T23:06:16.763Z,101198.00
2018-08-28T23:08:46.488Z,101201.00
2018-08-28T23:11:16.171Z,101200.00
2018-08-28T23:13:45.909Z,101200.00
2018-08-28T23:16:15.572Z,101200.00
2018-08-28T23:18:45.358Z,101196.00
2018-08-28T23:21:15.038Z,101192.00
2018-08-28T23:23:44.768Z,101183.00
2018-08-28T23:26:14.434Z,101184.00
2018-08-28T23:28:44.307Z,101178.00
2018-08-28T23:31:14.186Z,101177.00
2018-08-28T23:33:43.811Z,101185.00
2018-08-28T23:36:13.478Z,101174.00
2018-08-28T23:38:43.267Z,101176.00
2018-08-28T23:41:12.922Z,101180.00
2018-08-28T23:43:42.690Z,101179.00
2018-08-28T23:46:12.496Z,101176.00
2018-08-28T23:48:42.090Z,101183.00
2018-08-28T23:51:11.796Z,101189.00
2018-08-28T23:53:41.478Z,101179.00
2018-08-28T23:56:11.090Z,101177.00
2018-08-28T23:58:40.726Z,101173.00
